createdAt,value
2023-04-28T00:00:04.657Z,10.55
2023-04-28T00:01:06.110Z,10.55
2023-04-28T00:02:07.604Z,10.56
2023-04-28T00:03:09.249Z,10.57
2023-04-28T00:04:11.360Z,10.61
2023-04-28T00:05:13.618Z,10.55
2023-04-28T00:06:15.247Z,10.56
2023-04-28T00:07:16.699Z,10.56
2023-04-28T00:08:18.200Z,10.56
2023-04-28T00:09:19.954Z,10.47
2023-04-28T00:10:21.368Z,10.39
2023-04-28T00:11:22.818Z,10.40
2023-04-28T00:12:24.331Z,10.37
2023-04-28T00:13:25.795Z,10.36
2023-04-28T00:14:27.345Z,10.29
2023-04-28T00:15:28.947Z,10.30
2023-04-28T00:16:30.567Z,10.33
2023-04-28T00:17:32.184Z,10.37
2023-04-28T00:18:33.753Z,10.39
2023-04-28T00:19:35.523Z,10.42
2023-04-28T00:20:36.999Z,10.39
2023-04-28T00:21:38.436Z,10.39
2023-04-28T00:22:39.966Z,10.38
2023-04-28T00:23:41.426Z,10.37
2023-04-28T00:24:43.316Z,10.38
2023-04-28T00:25:44.734Z,10.40
2023-04-28T00:26:46.171Z,10.40
2023-04-28T00:27:47.599Z,10.43
2023-04-28T00:28:49.030Z,10.45
2023-04-28T00:29:50.772Z,10.44
2023-04-28T00:30:52.258Z,10.42
2023-04-28T00:31:53.727Z,10.43
2023-04-28T00:32:55.226Z,10.45
2023-04-28T00:33:56.709Z,10.49
2023-04-28T00:34:58.568Z,10.50
2023-04-28T00:36:01.216Z,10.48
2023-04-28T00:37:03.939Z,10.48
2023-04-28T00:38:05.599Z,10.48
2023-04-28T00:39:07.087Z,10.42
2023-04-28T00:40:09.197Z,10.41
2023-04-28T00:41:11.454Z,10.40
2023-04-28T00:42:13.898Z,10.33
2023-04-28T00:43:15.394Z,10.28
2023-04-28T00:44:17.461Z,10.26
2023-04-28T00:45:19.478Z,10.34
2023-04-28T00:46:27.239Z,10.37
2023-04-28T00:47:28.683Z,10.41
2023-04-28T00:48:30.856Z,10.43
2023-04-28T00:49:34.177Z,10.44
2023-04-28T00:50:36.661Z,10.44
2023-04-28T00:51:38.124Z,10.43
2023-04-28T00:52:39.851Z,10.45
2023-04-28T00:53:41.748Z,10.47
2023-04-28T00:54:43.250Z,10.49
2023-04-28T00:55:46.707Z,10.47
2023-04-28T00:56:48.831Z,10.47
2023-04-28T00:57:51.536Z,10.42
2023-04-28T00:58:53.451Z,10.40
2023-04-28T00:59:55.293Z,10.40
2023-04-28T01:01:07.093Z,10.39
2023-04-28T01:02:08.777Z,10.42
2023-04-28T01:03:10.913Z,10.40
2023-04-28T01:04:12.789Z,10.38
2023-04-28T01:05:15.682Z,10.40
2023-04-28T01:06:18.162Z,10.36
2023-04-28T01:07:19.677Z,10.35
2023-04-28T01:08:28.125Z,10.34
2023-04-28T01:09:29.669Z,10.35
2023-04-28T01:10:31.421Z,10.33
2023-04-28T01:11:32.935Z,10.33
2023-04-28T01:12:34.375Z,10.32
2023-04-28T01:13:35.879Z,10.38
2023-04-28T01:14:37.470Z,10.39
2023-04-28T01:15:38.985Z,10.44
2023-04-28T01:16:41.220Z,10.43
2023-04-28T01:17:43.033Z,10.43
2023-04-28T01:18:48.262Z,10.37
2023-04-28T01:19:49.817Z,10.37
2023-04-28T01:20:51.898Z,10.36
2023-04-28T01:21:53.437Z,10.40
2023-04-28T01:22:54.938Z,10.43
2023-04-28T01:24:00.335Z,10.44
2023-04-28T01:25:03.389Z,10.47
2023-04-28T01:26:05.654Z,10.46
2023-04-28T01:27:07.125Z,10.44
2023-04-28T01:28:09.438Z,10.45
2023-04-28T01:29:10.944Z,10.47
2023-04-28T01:30:12.475Z,10.45
2023-04-28T01:31:13.929Z,10.37
2023-04-28T01:32:15.451Z,10.38
2023-04-28T01:33:17.127Z,10.41
2023-04-28T01:34:18.815Z,10.44
2023-04-28T01:35:20.369Z,10.44
2023-04-28T01:36:23.788Z,10.45
2023-04-28T01:37:25.498Z,10.46
2023-04-28T01:38:27.085Z,10.49
2023-04-28T01:39:28.566Z,10.51
2023-04-28T01:40:30.495Z,10.54
2023-04-28T01:41:34.802Z,10.55
2023-04-28T01:42:36.274Z,10.57
2023-04-28T01:43:37.713Z,10.59
2023-04-28T01:44:39.221Z,10.62
2023-04-28T01:45:40.696Z,10.61
2023-04-28T01:46:42.252Z,10.61
2023-04-28T01:47:43.814Z,10.65
2023-04-28T01:48:45.383Z,10.55
2023-04-28T01:49:48.313Z,10.57
2023-04-28T01:50:50.056Z,10.55
2023-04-28T01:51:51.580Z,10.51
2023-04-28T01:52:53.025Z,10.41
2023-04-28T01:53:54.581Z,10.44
2023-04-28T01:54:56.290Z,10.44
2023-04-28T01:55:58.993Z,10.45
2023-04-28T01:57:00.518Z,10.49
2023-04-28T01:58:02.133Z,10.49
2023-04-28T01:59:03.603Z,10.47
2023-04-28T02:00:05.836Z,10.50
2023-04-28T02:01:07.741Z,10.48
2023-04-28T02:02:09.359Z,10.48
2023-04-28T02:03:11.240Z,10.51
2023-04-28T02:04:12.915Z,10.57
2023-04-28T02:05:14.683Z,10.59
2023-04-28T02:06:16.227Z,10.61
2023-04-28T02:07:17.689Z,10.60
2023-04-28T02:08:19.141Z,10.62
2023-04-28T02:09:20.845Z,10.62
2023-04-28T02:10:22.371Z,10.59
2023-04-28T02:11:24.270Z,10.61
2023-04-28T02:12:25.883Z,10.64
2023-04-28T02:13:27.366Z,10.63
2023-04-28T02:14:29.580Z,10.63
2023-04-28T02:15:31.055Z,10.61
2023-04-28T02:16:34.225Z,10.63
2023-04-28T02:17:36.110Z,10.61
2023-04-28T02:18:37.661Z,10.55
2023-04-28T02:19:39.167Z,10.58
2023-04-28T02:20:41.044Z,10.57
2023-04-28T02:21:43.272Z,10.60
2023-04-28T02:22:44.771Z,10.58
2023-04-28T02:23:46.574Z,10.54
2023-04-28T02:24:48.009Z,10.55
2023-04-28T02:25:49.559Z,10.60
2023-04-28T02:26:51.330Z,10.57
2023-04-28T02:27:52.873Z,10.56
2023-04-28T02:28:54.584Z,10.57
2023-04-28T02:29:56.026Z,10.58
2023-04-28T02:31:10.596Z,10.55
2023-04-28T02:32:12.141Z,10.58
2023-04-28T02:33:13.706Z,10.57
2023-04-28T02:34:15.402Z,10.54
2023-04-28T02:35:20.192Z,10.54
2023-04-28T02:36:21.867Z,10.57
2023-04-28T02:37:23.555Z,10.55
2023-04-28T02:38:25.107Z,10.59
2023-04-28T02:39:27.234Z,10.61
2023-04-28T02:40:28.884Z,10.60
2023-04-28T02:41:31.550Z,10.63
2023-04-28T02:42:33.319Z,10.65
2023-04-28T02:43:36.280Z,10.64
2023-04-28T02:44:37.709Z,10.66
2023-04-28T02:45:40.478Z,10.67
2023-04-28T02:46:42.050Z,10.69
2023-04-28T02:47:43.718Z,10.72
2023-04-28T02:48:45.304Z,10.65
2023-04-28T02:49:46.830Z,10.69
2023-04-28T02:50:48.379Z,10.68
2023-04-28T02:51:49.944Z,10.66
2023-04-28T02:52:51.482Z,10.70
2023-04-28T02:53:53.076Z,10.72
2023-04-28T02:54:57.390Z,10.76
2023-04-28T02:55:59.541Z,10.80
2023-04-28T02:57:01.589Z,10.79
2023-04-28T02:58:06.459Z,10.81
2023-04-28T02:59:08.123Z,10.78
2023-04-28T03:00:10.508Z,10.82
2023-04-28T03:01:12.176Z,10.83
2023-04-28T03:02:13.790Z,10.82
2023-04-28T03:03:15.674Z,10.85
2023-04-28T03:04:18.400Z,10.87
2023-04-28T03:05:20.558Z,10.82
2023-04-28T03:06:22.181Z,10.81
2023-04-28T03:07:23.727Z,10.71
2023-04-28T03:08:25.381Z,10.69
2023-04-28T03:09:27.016Z,10.73
2023-04-28T03:10:28.703Z,10.72
2023-04-28T03:11:30.333Z,10.73
2023-04-28T03:12:31.850Z,10.75
2023-04-28T03:13:33.388Z,10.80
2023-04-28T03:14:34.965Z,10.80
2023-04-28T03:15:36.577Z,10.85
2023-04-28T03:16:38.708Z,10.85
2023-04-28T03:17:42.242Z,10.89
2023-04-28T03:18:43.980Z,10.91
2023-04-28T03:19:45.527Z,10.92
2023-04-28T03:20:47.217Z,10.90
2023-04-28T03:21:48.815Z,10.94
2023-04-28T03:22:50.412Z,10.93
2023-04-28T03:23:52.135Z,10.97
2023-04-28T03:24:53.718Z,10.89
2023-04-28T03:25:55.620Z,10.93
2023-04-28T03:26:57.255Z,10.98
2023-04-28T03:27:58.750Z,11.01
2023-04-28T03:29:00.356Z,11.05
2023-04-28T03:30:01.909Z,11.06
2023-04-28T03:31:03.944Z,11.01
2023-04-28T03:32:05.851Z,11.02
2023-04-28T03:33:07.491Z,11.06
2023-04-28T03:34:09.200Z,11.08
2023-04-28T03:35:10.942Z,11.08
2023-04-28T03:36:13.006Z,11.08
2023-04-28T03:37:14.851Z,11.12
2023-04-28T03:38:16.608Z,11.13
2023-04-28T03:39:18.138Z,11.14
2023-04-28T03:40:20.044Z,11.12
2023-04-28T03:41:21.717Z,11.12
2023-04-28T03:42:23.248Z,11.13
2023-04-28T03:43:24.712Z,11.15
2023-04-28T03:44:26.738Z,11.17
2023-04-28T03:45:28.549Z,11.18
2023-04-28T03:46:30.107Z,11.19
2023-04-28T03:47:31.619Z,11.19
2023-04-28T03:48:33.145Z,11.19
2023-04-28T03:49:34.702Z,11.16
2023-04-28T03:50:36.548Z,11.19
2023-04-28T03:51:38.288Z,11.22
2023-04-28T03:52:39.818Z,11.20
2023-04-28T03:53:41.354Z,11.14
2023-04-28T03:54:43.107Z,11.16
2023-04-28T03:55:44.978Z,11.15
2023-04-28T03:56:46.688Z,11.18
2023-04-28T03:57:48.352Z,11.21
2023-04-28T03:58:50.060Z,11.25
2023-04-28T03:59:52.386Z,11.23
2023-04-28T04:00:54.306Z,11.24
2023-04-28T04:01:55.868Z,11.25
2023-04-28T04:02:57.763Z,11.26
2023-04-28T04:03:59.694Z,11.24
2023-04-28T04:05:02.123Z,11.26
2023-04-28T04:06:04.215Z,11.29
2023-04-28T04:07:06.424Z,11.28
2023-04-28T04:08:07.973Z,11.33
2023-04-28T04:09:11.977Z,11.35
2023-04-28T04:10:13.518Z,11.35
2023-04-28T04:11:14.991Z,11.37
2023-04-28T04:12:17.010Z,11.37
2023-04-28T04:13:18.731Z,11.31
2023-04-28T04:14:20.319Z,11.26
2023-04-28T04:15:21.847Z,11.26
2023-04-28T04:16:23.552Z,11.29
2023-04-28T04:17:25.158Z,11.28
2023-04-28T04:18:27.417Z,11.30
2023-04-28T04:19:29.176Z,11.29
2023-04-28T04:20:30.699Z,11.33
2023-04-28T04:21:32.285Z,11.33
2023-04-28T04:22:33.769Z,11.34
2023-04-28T04:23:35.522Z,11.33
2023-04-28T04:24:37.204Z,11.32
2023-04-28T04:25:38.707Z,11.34
2023-04-28T04:26:40.454Z,11.38
2023-04-28T04:27:41.995Z,11.38
2023-04-28T04:28:43.547Z,11.37
2023-04-28T04:29:45.180Z,11.36
2023-04-28T04:30:46.706Z,11.39
2023-04-28T04:31:49.638Z,11.39
2023-04-28T04:32:51.344Z,11.40
2023-04-28T04:33:53.519Z,11.40
2023-04-28T04:34:55.704Z,11.42
2023-04-28T04:36:00.100Z,11.43
2023-04-28T04:37:01.832Z,11.40
2023-04-28T04:38:03.478Z,11.40
2023-04-28T04:39:05.036Z,11.37
2023-04-28T04:40:07.703Z,11.36
2023-04-28T04:41:09.335Z,11.36
2023-04-28T04:42:23.894Z,11.35
2023-04-28T04:43:26.746Z,11.33
2023-04-28T04:44:28.426Z,11.35
2023-04-28T04:45:33.530Z,11.37
2023-04-28T04:46:35.107Z,11.37
2023-04-28T04:47:36.995Z,11.32
2023-04-28T04:48:38.680Z,11.36
2023-04-28T04:49:40.919Z,11.40
2023-04-28T04:50:43.704Z,11.39
2023-04-28T04:51:45.301Z,11.42
2023-04-28T04:52:46.995Z,11.42
2023-04-28T04:53:48.530Z,11.42
2023-04-28T04:54:50.083Z,11.40
2023-04-28T04:55:51.835Z,11.42
2023-04-28T04:56:53.466Z,11.40
2023-04-28T04:57:55.024Z,11.37
2023-04-28T04:58:56.564Z,11.38
2023-04-28T04:59:58.319Z,11.40
2023-04-28T05:01:00.110Z,11.40
2023-04-28T05:02:01.999Z,11.40
2023-04-28T05:03:06.653Z,11.40
2023-04-28T05:04:08.765Z,11.41
2023-04-28T05:05:20.569Z,11.42
2023-04-28T05:06:23.841Z,11.42
2023-04-28T05:07:26.638Z,11.40
2023-04-28T05:08:28.261Z,11.41
2023-04-28T05:09:31.061Z,11.40
2023-04-28T05:10:32.952Z,11.37
2023-04-28T05:11:34.535Z,11.37
2023-04-28T05:12:36.067Z,11.38
2023-04-28T05:13:37.610Z,11.38
2023-04-28T05:14:39.159Z,11.38
2023-04-28T05:15:40.797Z,11.39
2023-04-28T05:16:43.027Z,11.39
2023-04-28T05:17:44.781Z,11.37
2023-04-28T05:18:46.542Z,11.37
2023-04-28T05:19:48.198Z,11.37
2023-04-28T05:20:49.812Z,11.40
2023-04-28T05:21:53.863Z,11.40
2023-04-28T05:22:55.746Z,11.38
2023-04-28T05:23:57.482Z,11.39
2023-04-28T05:24:59.325Z,11.38
2023-04-28T05:26:01.010Z,11.37
2023-04-28T05:27:02.564Z,11.41
2023-04-28T05:28:07.571Z,11.40
2023-04-28T05:29:09.441Z,11.38
2023-04-28T05:30:11.086Z,11.41
2023-04-28T05:31:12.577Z,11.37
2023-04-28T05:32:14.415Z,11.42
2023-04-28T05:33:16.260Z,11.46
2023-04-28T05:34:18.143Z,11.46
2023-04-28T05:35:20.787Z,11.49
2023-04-28T05:36:22.435Z,11.50
2023-04-28T05:37:23.983Z,11.50
2023-04-28T05:38:26.178Z,11.51
2023-04-28T05:39:27.877Z,11.49
2023-04-28T05:40:29.795Z,11.48
2023-04-28T05:41:31.286Z,11.48
2023-04-28T05:42:32.794Z,11.42
2023-04-28T05:43:34.251Z,11.41
2023-04-28T05:44:38.212Z,11.45
2023-04-28T05:45:40.038Z,11.43
2023-04-28T05:46:41.733Z,11.44
2023-04-28T05:47:43.471Z,11.43
2023-04-28T05:48:46.240Z,11.43
2023-04-28T05:49:47.843Z,11.41
2023-04-28T05:50:49.451Z,11.41
2023-04-28T05:51:50.995Z,11.46
2023-04-28T05:52:54.091Z,11.47
2023-04-28T05:53:55.697Z,11.44
2023-04-28T05:54:57.168Z,11.39
2023-04-28T05:55:58.741Z,11.41
2023-04-28T05:57:01.536Z,11.42
2023-04-28T05:58:03.618Z,11.45
2023-04-28T05:59:05.186Z,11.41
2023-04-28T06:00:07.953Z,11.41
2023-04-28T06:01:10.632Z,11.41
2023-04-28T06:02:12.085Z,11.34
2023-04-28T06:03:17.640Z,11.37
2023-04-28T06:04:19.857Z,11.34
2023-04-28T06:05:21.991Z,11.33
2023-04-28T06:06:23.817Z,11.30
2023-04-28T06:07:25.607Z,11.34
2023-04-28T06:08:27.494Z,11.38
2023-04-28T06:09:29.913Z,11.43
2023-04-28T06:10:31.737Z,11.43
2023-04-28T06:11:33.319Z,11.41
2023-04-28T06:12:34.830Z,11.42
2023-04-28T06:13:38.974Z,11.44
2023-04-28T06:14:40.725Z,11.42
2023-04-28T06:15:42.389Z,11.36
2023-04-28T06:16:44.216Z,11.37
2023-04-28T06:17:45.739Z,11.37
2023-04-28T06:18:49.195Z,11.37
2023-04-28T06:19:56.372Z,11.40
2023-04-28T06:21:00.331Z,11.41
2023-04-28T06:22:01.815Z,11.42
2023-04-28T06:23:06.874Z,11.46
2023-04-28T06:24:08.402Z,11.49
2023-04-28T06:25:09.964Z,11.53
2023-04-28T06:26:11.485Z,11.57
2023-04-28T06:27:13.032Z,11.62
2023-04-28T06:28:15.147Z,11.59
2023-04-28T06:29:16.654Z,11.61
2023-04-28T06:30:27.418Z,11.62
2023-04-28T06:31:29.363Z,11.63
2023-04-28T06:32:31.291Z,11.65
2023-04-28T06:33:33.066Z,11.63
2023-04-28T06:34:35.497Z,11.59
2023-04-28T06:35:40.418Z,11.60
2023-04-28T06:36:41.996Z,11.60
2023-04-28T06:37:46.568Z,11.64
2023-04-28T06:38:48.726Z,11.64
2023-04-28T06:39:50.410Z,11.69
2023-04-28T06:40:52.068Z,11.71
2023-04-28T06:41:56.320Z,11.74
2023-04-28T06:42:58.060Z,11.75
2023-04-28T06:43:59.842Z,11.73
2023-04-28T06:45:01.468Z,11.69
2023-04-28T06:46:03.152Z,11.69
2023-04-28T06:47:07.158Z,11.67
2023-04-28T06:48:08.905Z,11.69
2023-04-28T06:49:10.448Z,11.66
2023-04-28T06:50:12.482Z,11.65
2023-04-28T06:51:15.098Z,11.66
2023-04-28T06:52:16.730Z,11.66
2023-04-28T06:53:18.268Z,11.67
2023-04-28T06:54:19.974Z,11.64
2023-04-28T06:55:21.739Z,11.61
2023-04-28T06:56:23.475Z,11.64
2023-04-28T06:57:25.013Z,11.63
2023-04-28T06:58:26.641Z,11.62
2023-04-28T06:59:28.166Z,11.63
2023-04-28T07:00:29.822Z,11.56
2023-04-28T07:01:31.396Z,11.54
2023-04-28T07:02:32.983Z,11.57
2023-04-28T07:03:35.028Z,11.51
2023-04-28T07:04:39.248Z,11.48
2023-04-28T07:05:41.218Z,11.48
2023-04-28T07:06:42.750Z,11.48
2023-04-28T07:07:46.055Z,11.45
2023-04-28T07:08:47.552Z,11.53
2023-04-28T07:09:49.018Z,11.58
2023-04-28T07:10:50.440Z,11.56
2023-04-28T07:11:51.986Z,11.58
2023-04-28T07:12:53.450Z,11.61
2023-04-28T07:13:55.005Z,11.59
2023-04-28T07:14:56.454Z,11.59
2023-04-28T07:15:58.263Z,11.63
2023-04-28T07:16:59.732Z,11.68
2023-04-28T07:18:01.313Z,11.71
2023-04-28T07:19:02.856Z,11.73
2023-04-28T07:20:05.497Z,11.75
2023-04-28T07:21:07.021Z,11.79
2023-04-28T07:22:08.557Z,11.83
2023-04-28T07:23:10.121Z,11.86
2023-04-28T07:24:11.648Z,11.84
2023-04-28T07:25:13.183Z,11.82
2023-04-28T07:26:16.421Z,11.83
2023-04-28T07:27:17.930Z,11.80
2023-04-28T07:28:20.745Z,11.82
2023-04-28T07:29:22.400Z,11.74
2023-04-28T07:30:27.927Z,11.64
2023-04-28T07:31:30.125Z,11.64
2023-04-28T07:32:31.690Z,11.61
2023-04-28T07:33:33.142Z,11.62
2023-04-28T07:34:38.519Z,11.63
2023-04-28T07:35:40.469Z,11.62
2023-04-28T07:36:42.166Z,11.66
2023-04-28T07:37:43.648Z,11.68
2023-04-28T07:38:45.190Z,11.68
2023-04-28T07:39:47.303Z,11.71
2023-04-28T07:40:48.875Z,11.73
2023-04-28T07:41:50.578Z,11.73
2023-04-28T07:42:52.486Z,11.75
2023-04-28T07:43:54.019Z,11.71
2023-04-28T07:44:56.232Z,11.69
2023-04-28T07:45:58.030Z,11.71
2023-04-28T07:47:00.784Z,11.68
2023-04-28T07:48:02.646Z,11.68
2023-04-28T07:49:04.864Z,11.66
2023-04-28T07:50:07.396Z,11.66
2023-04-28T07:51:09.046Z,11.67
2023-04-28T07:52:10.589Z,11.70
2023-04-28T07:53:12.434Z,11.71
2023-04-28T07:54:13.862Z,11.70
2023-04-28T07:55:15.438Z,11.68
2023-04-28T07:56:17.159Z,11.67
2023-04-28T07:57:18.756Z,11.63
2023-04-28T07:58:20.361Z,11.56
2023-04-28T07:59:21.971Z,11.59
2023-04-28T08:00:23.562Z,11.57
2023-04-28T08:01:25.116Z,11.57
2023-04-28T08:02:27.480Z,11.56
2023-04-28T08:03:29.350Z,11.51
2023-04-28T08:04:33.805Z,11.51
2023-04-28T08:05:35.778Z,11.51
2023-04-28T08:06:39.121Z,11.54
2023-04-28T08:07:40.651Z,11.56
2023-04-28T08:08:42.123Z,11.58
2023-04-28T08:09:47.227Z,11.54
2023-04-28T08:10:50.783Z,11.52
2023-04-28T08:11:52.409Z,11.53
2023-04-28T08:12:54.241Z,11.50
2023-04-28T08:14:01.257Z,11.50
2023-04-28T08:15:05.438Z,11.46
2023-04-28T08:16:07.421Z,11.49
2023-04-28T08:17:09.470Z,11.50
2023-04-28T08:18:11.079Z,11.45
2023-04-28T08:19:12.891Z,11.49
2023-04-28T08:20:21.057Z,11.43
2023-04-28T08:21:23.771Z,11.44
2023-04-28T08:22:25.214Z,11.43
2023-04-28T08:23:31.893Z,11.43
2023-04-28T08:24:34.483Z,11.43
2023-04-28T08:25:36.299Z,11.45
2023-04-28T08:26:38.544Z,11.48
2023-04-28T08:27:40.594Z,11.41
2023-04-28T08:28:42.320Z,11.45
2023-04-28T08:29:44.091Z,11.46
2023-04-28T08:30:45.692Z,11.44
2023-04-28T08:31:47.404Z,11.40
2023-04-28T08:32:49.390Z,11.44
2023-04-28T08:33:51.391Z,11.48
2023-04-28T08:34:53.000Z,11.49
2023-04-28T08:35:58.361Z,11.51
2023-04-28T08:37:00.378Z,11.55
2023-04-28T08:38:02.215Z,11.61
2023-04-28T08:39:05.186Z,11.61
2023-04-28T08:40:10.126Z,11.68
2023-04-28T08:41:21.808Z,11.67
2023-04-28T08:42:23.779Z,11.64
2023-04-28T08:43:25.606Z,11.66
2023-04-28T08:44:27.343Z,11.68
2023-04-28T08:45:31.853Z,11.68
2023-04-28T08:46:34.955Z,11.72
2023-04-28T08:47:41.305Z,11.80
2023-04-28T08:48:45.740Z,11.78
2023-04-28T08:49:49.196Z,11.74
2023-04-28T08:50:53.404Z,11.70
2023-04-28T08:52:00.310Z,11.72
2023-04-28T08:53:04.448Z,11.72
2023-04-28T08:55:13.213Z,11.80
2023-04-28T08:56:16.910Z,11.84
2023-04-28T08:57:21.165Z,11.88
2023-04-28T08:58:24.231Z,11.92
2023-04-28T08:59:26.356Z,11.90
2023-04-28T09:00:28.604Z,11.89
2023-04-28T09:01:30.691Z,11.87
2023-04-28T09:02:32.471Z,11.83
2023-04-28T09:03:34.429Z,11.79
2023-04-28T09:04:36.971Z,11.79
2023-04-28T09:05:38.843Z,11.75
2023-04-28T09:06:40.614Z,11.71
2023-04-28T09:07:47.982Z,11.70
2023-04-28T09:08:49.630Z,11.73
2023-04-28T09:09:51.494Z,11.76
2023-04-28T09:11:09.868Z,11.73
2023-04-28T09:12:11.632Z,11.74
2023-04-28T09:13:25.941Z,11.74
2023-04-28T09:14:29.103Z,11.72
2023-04-28T09:15:36.250Z,11.74
2023-04-28T09:16:41.855Z,11.74
2023-04-28T09:17:50.999Z,11.73
2023-04-28T09:18:58.501Z,11.72
2023-04-28T09:20:00.014Z,11.66
2023-04-28T09:21:09.619Z,11.70
2023-04-28T09:22:25.601Z,11.69
2023-04-28T09:23:28.707Z,11.67
2023-04-28T09:24:30.844Z,11.69
2023-04-28T09:25:32.355Z,11.70
2023-04-28T09:27:04.463Z,11.70
2023-04-28T09:28:22.090Z,11.70
2023-04-28T09:29:24.116Z,11.69
2023-04-28T09:30:43.776Z,11.73
2023-04-28T09:31:50.057Z,11.79
2023-04-28T09:33:08.252Z,11.84
2023-04-28T09:34:17.392Z,11.83
2023-04-28T09:35:39.559Z,11.87
2023-04-28T09:36:41.221Z,11.90
2023-04-28T09:37:43.874Z,11.92
2023-04-28T09:38:45.420Z,11.92
2023-04-28T09:39:49.486Z,11.91
2023-04-28T09:40:58.342Z,11.88
2023-04-28T09:42:03.543Z,11.86
2023-04-28T09:43:15.297Z,11.79
2023-04-28T09:44:23.755Z,11.76
2023-04-28T09:45:28.174Z,11.77
2023-04-28T09:46:30.762Z,11.79
2023-04-28T09:47:34.936Z,11.82
2023-04-28T09:48:41.561Z,11.85
2023-04-28T09:49:58.573Z,11.90
2023-04-28T09:51:01.716Z,11.97
2023-04-28T09:52:13.424Z,12.01
2023-04-28T09:53:17.800Z,12.04
2023-04-28T09:54:27.688Z,12.09
2023-04-28T09:55:32.888Z,12.11
2023-04-28T09:56:40.853Z,12.14
2023-04-28T09:57:49.828Z,12.12
2023-04-28T09:58:56.713Z,12.13
2023-04-28T09:59:59.537Z,12.15
2023-04-28T10:01:01.454Z,12.14
2023-04-28T10:02:22.480Z,12.16
2023-04-28T10:03:31.291Z,12.21
2023-04-28T10:04:36.624Z,12.10
2023-04-28T10:05:39.951Z,12.08
2023-04-28T10:06:51.240Z,12.12
2023-04-28T10:07:55.630Z,12.00
2023-04-28T10:08:58.920Z,12.03
2023-04-28T10:10:00.808Z,12.01
2023-04-28T10:11:03.052Z,12.07
2023-04-28T10:12:07.251Z,12.08
2023-04-28T10:13:09.454Z,12.12
2023-04-28T10:14:12.062Z,12.14
2023-04-28T10:15:13.553Z,12.14
2023-04-28T10:16:15.645Z,12.21
2023-04-28T10:17:17.857Z,12.25
2023-04-28T10:18:19.866Z,12.35
2023-04-28T10:19:21.878Z,12.40
2023-04-28T10:20:25.596Z,12.43
2023-04-28T10:21:38.708Z,12.44
2023-04-28T10:23:07.788Z,12.36
2023-04-28T10:24:15.244Z,12.37
2023-04-28T10:25:22.288Z,12.38
2023-04-28T10:26:36.564Z,12.42
2023-04-28T10:27:42.098Z,12.45
2023-04-28T10:28:50.733Z,12.48
2023-04-28T10:29:52.282Z,12.38
2023-04-28T10:31:12.193Z,12.33
2023-04-28T10:32:17.823Z,12.29
2023-04-28T10:33:24.047Z,12.28
2023-04-28T10:34:29.577Z,12.29
2023-04-28T10:35:32.500Z,12.31
2023-04-28T10:36:50.918Z,12.33
2023-04-28T10:38:08.715Z,12.33
2023-04-28T10:39:12.543Z,12.30
2023-04-28T10:40:36.052Z,12.21
2023-04-28T10:41:37.673Z,12.23
2023-04-28T10:42:53.610Z,12.25
2023-04-28T10:43:55.107Z,12.25
2023-04-28T10:44:56.728Z,12.25
2023-04-28T10:46:01.412Z,12.27
2023-04-28T10:47:04.577Z,12.30
2023-04-28T10:48:06.732Z,12.32
2023-04-28T10:49:08.574Z,12.32
2023-04-28T10:50:11.429Z,12.35
2023-04-28T10:51:16.436Z,12.35
2023-04-28T10:52:33.679Z,12.38
2023-04-28T10:53:44.761Z,12.46
2023-04-28T10:55:25.115Z,12.52
2023-04-28T10:56:27.874Z,12.60
2023-04-28T10:57:29.395Z,12.66
2023-04-28T10:58:32.542Z,12.72
2023-04-28T10:59:33.994Z,12.74
2023-04-28T11:00:35.732Z,12.80
2023-04-28T11:01:37.302Z,12.87
2023-04-28T11:02:43.711Z,12.90
2023-04-28T11:03:50.373Z,12.92
2023-04-28T11:05:12.879Z,12.92
2023-04-28T11:06:29.228Z,12.95
2023-04-28T11:07:31.241Z,12.89
2023-04-28T11:08:33.545Z,12.90
2023-04-28T11:09:34.978Z,12.91
2023-04-28T11:11:10.439Z,12.93
2023-04-28T11:12:12.446Z,12.90
2023-04-28T11:13:34.529Z,12.86
2023-04-28T11:14:38.047Z,12.87
2023-04-28T11:15:40.138Z,12.88
2023-04-28T11:17:03.180Z,12.87
2023-04-28T11:18:16.097Z,12.87
2023-04-28T11:19:21.744Z,12.90
2023-04-28T11:20:23.372Z,12.91
2023-04-28T11:21:28.909Z,12.88
2023-04-28T11:22:31.381Z,12.91
2023-04-28T11:23:33.156Z,12.91
2023-04-28T11:24:34.693Z,12.88
2023-04-28T11:25:56.024Z,12.90
2023-04-28T11:26:58.504Z,12.89
2023-04-28T11:28:08.583Z,12.93
2023-04-28T11:29:11.706Z,13.00
2023-04-28T11:30:23.041Z,13.05
2023-04-28T11:31:26.516Z,13.11
2023-04-28T11:32:29.777Z,13.17
2023-04-28T11:33:31.885Z,13.18
2023-04-28T11:34:33.953Z,13.19
2023-04-28T11:35:42.144Z,13.24
2023-04-28T11:36:43.863Z,13.26
2023-04-28T11:37:45.391Z,13.28
2023-04-28T11:38:47.458Z,13.32
2023-04-28T11:39:49.534Z,13.31
2023-04-28T11:40:58.250Z,13.35
2023-04-28T11:42:02.446Z,13.38
2023-04-28T11:43:04.587Z,13.39
2023-04-28T11:44:17.306Z,13.45
2023-04-28T11:45:19.060Z,13.44
2023-04-28T11:46:23.102Z,13.44
2023-04-28T11:47:34.647Z,13.45
2023-04-28T11:48:36.659Z,13.46
2023-04-28T11:49:47.627Z,13.46
2023-04-28T11:50:49.152Z,13.43
2023-04-28T11:51:54.958Z,13.46
2023-04-28T11:52:56.512Z,13.46
2023-04-28T11:53:58.170Z,13.52
2023-04-28T11:55:01.149Z,13.55
2023-04-28T11:56:09.609Z,13.61
2023-04-28T11:57:23.455Z,13.66
2023-04-28T11:58:25.405Z,13.69
2023-04-28T11:59:33.687Z,13.71
2023-04-28T12:00:35.483Z,13.72
2023-04-28T12:03:15.074Z,13.77
2023-04-28T12:04:32.128Z,13.79
2023-04-28T12:05:37.526Z,13.83
2023-04-28T12:06:58.222Z,13.83
2023-04-28T12:08:00.095Z,13.87
2023-04-28T12:09:16.165Z,13.89
2023-04-28T12:10:18.746Z,13.91
2023-04-28T12:11:22.541Z,13.89
2023-04-28T12:12:51.656Z,13.93
2023-04-28T12:14:08.193Z,13.93
2023-04-28T12:15:10.083Z,13.91
2023-04-28T12:16:11.678Z,13.92
2023-04-28T12:17:38.006Z,13.94
2023-04-28T12:19:00.066Z,13.98
2023-04-28T12:20:04.106Z,14.02
2023-04-28T12:21:21.386Z,14.05
2023-04-28T12:22:25.692Z,14.07
2023-04-28T12:23:35.121Z,14.11
2023-04-28T12:24:36.721Z,14.14
2023-04-28T12:25:45.110Z,14.17
2023-04-28T12:26:50.152Z,14.17
2023-04-28T12:28:11.028Z,14.20
2023-04-28T12:29:42.282Z,14.22
2023-04-28T12:30:44.201Z,14.24
2023-04-28T12:31:53.202Z,14.25
2023-04-28T12:32:56.153Z,14.27
2023-04-28T12:33:58.022Z,14.28
2023-04-28T12:34:59.459Z,14.35
2023-04-28T12:36:01.495Z,14.41
2023-04-28T12:37:05.891Z,14.46
2023-04-28T12:38:12.152Z,14.48
2023-04-28T12:39:16.459Z,14.51
2023-04-28T12:40:20.861Z,14.53
2023-04-28T12:41:25.383Z,14.54
2023-04-28T12:42:27.038Z,14.56
2023-04-28T12:43:30.088Z,14.57
2023-04-28T12:44:38.506Z,14.56
2023-04-28T12:45:41.474Z,14.47
2023-04-28T12:46:43.039Z,14.42
2023-04-28T12:47:44.602Z,14.38
2023-04-28T12:48:46.207Z,14.37
2023-04-28T12:49:50.003Z,14.35
2023-04-28T12:50:52.410Z,14.35
2023-04-28T12:51:53.908Z,14.37
2023-04-28T12:52:56.610Z,14.37
2023-04-28T12:53:58.142Z,14.39
2023-04-28T12:55:00.226Z,14.42
2023-04-28T12:56:01.744Z,14.41
2023-04-28T12:57:05.136Z,14.42
2023-04-28T12:58:06.978Z,14.44
2023-04-28T12:59:08.624Z,14.42
2023-04-28T13:00:10.676Z,14.44
2023-04-28T13:01:12.239Z,14.46
2023-04-28T13:02:17.286Z,14.48
2023-04-28T13:03:20.333Z,14.49
2023-04-28T13:04:22.136Z,14.51
2023-04-28T13:05:23.796Z,14.49
2023-04-28T13:06:27.144Z,14.50
2023-04-28T13:07:29.562Z,14.48
2023-04-28T13:08:34.178Z,14.42
2023-04-28T13:09:39.773Z,14.44
2023-04-28T13:11:58.212Z,14.48
2023-04-28T13:12:59.920Z,14.50
2023-04-28T13:14:01.893Z,14.54
2023-04-28T13:15:04.183Z,14.57
2023-04-28T13:16:05.898Z,14.57
2023-04-28T13:17:08.178Z,14.59
2023-04-28T13:18:09.676Z,14.60
2023-04-28T13:19:13.922Z,14.59
2023-04-28T13:20:15.532Z,14.60
2023-04-28T13:21:17.377Z,14.60
2023-04-28T13:22:19.881Z,14.59
2023-04-28T13:23:21.581Z,14.59
2023-04-28T13:24:23.168Z,14.59
2023-04-28T13:25:24.837Z,14.58
2023-04-28T13:26:26.932Z,14.59
2023-04-28T13:27:30.581Z,14.60
2023-04-28T13:28:32.550Z,14.60
2023-04-28T13:29:34.021Z,14.61
2023-04-28T13:30:35.576Z,14.62
2023-04-28T13:31:37.364Z,14.64
2023-04-28T13:32:39.430Z,14.67
2023-04-28T13:33:41.123Z,14.67
2023-04-28T13:34:42.716Z,14.71
2023-04-28T13:35:44.409Z,14.77
2023-04-28T13:36:48.075Z,14.82
2023-04-28T13:37:50.086Z,14.87
2023-04-28T13:38:51.826Z,14.93
2023-04-28T13:39:53.554Z,15.00
2023-04-28T13:40:55.479Z,15.05
2023-04-28T13:41:56.951Z,15.09